sensor_id;sensor_type;location;lat;lon;timestamp;pressure;altitude;pressure_sealevel;temperature;humidity
19761;BME280;10039;42.632;23.408;2022-11-20T00:02:04;94289.50;;;13.80;82.51
19761;BME280;10039;42.632;23.408;2022-11-20T00:04:29;94307.06;;;13.99;81.91
19761;BME280;10039;42.632;23.408;2022-11-20T00:06:55;94291.84;;;13.96;82.35
19761;BME280;10039;42.632;23.408;2022-11-20T00:09:20;94294.72;;;14.02;81.81
19761;BME280;10039;42.632;23.408;2022-11-20T00:11:46;94308.25;;;13.98;82.13
19761;BME280;10039;42.632;23.408;2022-11-20T00:14:12;94302.72;;;14.11;81.64
19761;BME280;10039;42.632;23.408;2022-11-20T00:16:37;94300.50;;;14.18;80.41
19761;BME280;10039;42.632;23.408;2022-11-20T00:19:03;94297.38;;;14.20;80.66
19761;BME280;10039;42.632;23.408;2022-11-20T00:21:29;94280.53;;;14.10;80.21
19761;BME280;10039;42.632;23.408;2022-11-20T00:23:56;94264.72;;;14.21;79.21
19761;BME280;10039;42.632;23.408;2022-11-20T00:26:24;94291.78;;;14.50;78.62
19761;BME280;10039;42.632;23.408;2022-11-20T00:28:52;94276.91;;;14.40;76.27
19761;BME280;10039;42.632;23.408;2022-11-20T00:31:18;94269.59;;;14.50;75.90
19761;BME280;10039;42.632;23.408;2022-11-20T00:33:45;94246.78;;;14.45;75.38
19761;BME280;10039;42.632;23.408;2022-11-20T00:36:16;94260.16;;;14.54;75.05
19761;BME280;10039;42.632;23.408;2022-11-20T00:38:43;94246.13;;;14.59;74.61
19761;BME280;10039;42.632;23.408;2022-11-20T00:41:10;94286.88;;;14.90;74.02
19761;BME280;10039;42.632;23.408;2022-11-20T00:43:37;94283.88;;;14.97;74.05
19761;BME280;10039;42.632;23.408;2022-11-20T00:46:08;94277.34;;;14.89;73.53
19761;BME280;10039;42.632;23.408;2022-11-20T00:48:35;94277.31;;;14.98;72.82
19761;BME280;10039;42.632;23.408;2022-11-20T00:51:01;94260.59;;;14.94;72.05
19761;BME280;10039;42.632;23.408;2022-11-20T00:53:27;94262.72;;;14.90;71.18
19761;BME280;10039;42.632;23.408;2022-11-20T00:55:59;94297.47;;;15.35;68.22
19761;BME280;10039;42.632;23.408;2022-11-20T00:58:32;94312.44;;;15.50;69.07
19761;BME280;10039;42.632;23.408;2022-11-20T01:01:03;94296.41;;;15.56;69.08
19761;BME280;10039;42.632;23.408;2022-11-20T01:03:47;94301.94;;;15.61;69.44
19761;BME280;10039;42.632;23.408;2022-11-20T01:06:18;94297.84;;;15.66;69.33
19761;BME280;10039;42.632;23.408;2022-11-20T01:08:45;94294.88;;;15.64;69.51
19761;BME280;10039;42.632;23.408;2022-11-20T01:11:16;94272.34;;;15.38;69.76
19761;BME280;10039;42.632;23.408;2022-11-20T01:13:43;94288.47;;;15.38;70.16
19761;BME280;10039;42.632;23.408;2022-11-20T01:16:12;94272.69;;;15.31;70.43
19761;BME280;10039;42.632;23.408;2022-11-20T01:18:40;94286.69;;;15.35;70.67
19761;BME280;10039;42.632;23.408;2022-11-20T01:21:15;94273.94;;;15.44;70.59
19761;BME280;10039;42.632;23.408;2022-11-20T01:23:42;94269.06;;;15.34;69.98
19761;BME280;10039;42.632;23.408;2022-11-20T01:26:11;94259.81;;;15.26;70.33
19761;BME280;10039;42.632;23.408;2022-11-20T01:28:37;94268.75;;;15.41;69.93
19761;BME280;10039;42.632;23.408;2022-11-20T01:31:24;94248.44;;;15.40;69.87
19761;BME280;10039;42.632;23.408;2022-11-20T01:33:52;94232.94;;;15.26;70.11
19761;BME280;10039;42.632;23.408;2022-11-20T01:36:20;94233.25;;;15.28;69.94
19761;BME280;10039;42.632;23.408;2022-11-20T01:38:46;94243.84;;;15.31;70.73
19761;BME280;10039;42.632;23.408;2022-11-20T01:41:14;94200.34;;;15.09;70.73
19761;BME280;10039;42.632;23.408;2022-11-20T01:44:00;94224.59;;;15.24;71.32
19761;BME280;10039;42.632;23.408;2022-11-20T01:46:25;94244.00;;;15.28;71.55
19761;BME280;10039;42.632;23.408;2022-11-20T01:51:32;94232.94;;;15.26;72.42
19761;BME280;10039;42.632;23.408;2022-11-20T01:54:01;94248.97;;;15.20;72.21
19761;BME280;10039;42.632;23.408;2022-11-20T01:56:31;94234.75;;;15.29;71.99
19761;BME280;10039;42.632;23.408;2022-11-20T01:59:00;94227.88;;;15.28;71.36
19761;BME280;10039;42.632;23.408;2022-11-20T02:01:27;94202.78;;;15.22;70.62
19761;BME280;10039;42.632;23.408;2022-11-20T02:03:53;94220.25;;;15.50;69.23
19761;BME280;10039;42.632;23.408;2022-11-20T02:06:23;94230.84;;;15.53;69.66
19761;BME280;10039;42.632;23.408;2022-11-20T02:08:51;94230.31;;;15.64;69.55
19761;BME280;10039;42.632;23.408;2022-11-20T02:11:18;94233.84;;;15.70;68.83
19761;BME280;10039;42.632;23.408;2022-11-20T02:13:44;94252.53;;;15.50;69.80
19761;BME280;10039;42.632;23.408;2022-11-20T02:16:18;94261.44;;;15.56;69.88
19761;BME280;10039;42.632;23.408;2022-11-20T02:18:46;94247.56;;;15.57;69.91
19761;BME280;10039;42.632;23.408;2022-11-20T02:21:18;94253.13;;;15.68;69.12
19761;BME280;10039;42.632;23.408;2022-11-20T02:24:04;94236.84;;;15.72;68.89
19761;BME280;10039;42.632;23.408;2022-11-20T02:26:33;94219.16;;;15.56;68.32
19761;BME280;10039;42.632;23.408;2022-11-20T02:29:00;94239.38;;;15.52;69.70
19761;BME280;10039;42.632;23.408;2022-11-20T02:31:27;94209.09;;;15.42;68.72
19761;BME280;10039;42.632;23.408;2022-11-20T02:33:59;94264.47;;;15.49;69.66
19761;BME280;10039;42.632;23.408;2022-11-20T02:36:27;94252.53;;;15.50;69.79
19761;BME280;10039;42.632;23.408;2022-11-20T02:38:53;94220.09;;;15.30;69.19
19761;BME280;10039;42.632;23.408;2022-11-20T02:41:19;94227.25;;;15.33;70.02
19761;BME280;10039;42.632;23.408;2022-11-20T02:43:45;94249.91;;;15.41;68.98
19761;BME280;10039;42.632;23.408;2022-11-20T02:46:10;94244.00;;;15.51;67.79
19761;BME280;10039;42.632;23.408;2022-11-20T02:48:36;94234.00;;;15.66;66.05
19761;BME280;10039;42.632;23.408;2022-11-20T02:51:02;94262.38;;;15.90;64.77
19761;BME280;10039;42.632;23.408;2022-11-20T02:53:28;94257.28;;;15.92;64.47
19761;BME280;10039;42.632;23.408;2022-11-20T02:55:53;94243.75;;;16.01;63.57
19761;BME280;10039;42.632;23.408;2022-11-20T02:58:19;94258.09;;;16.36;62.07
19761;BME280;10039;42.632;23.408;2022-11-20T03:00:44;94266.16;;;16.65;61.57
19761;BME280;10039;42.632;23.408;2022-11-20T03:03:10;94274.41;;;16.76;61.80
19761;BME280;10039;42.632;23.408;2022-11-20T03:05:36;94266.44;;;16.82;60.20
19761;BME280;10039;42.632;23.408;2022-11-20T03:08:01;94294.22;;;17.22;59.32
19761;BME280;10039;42.632;23.408;2022-11-20T03:10:27;94287.22;;;17.30;59.24
19761;BME280;10039;42.632;23.408;2022-11-20T03:12:53;94286.06;;;17.31;59.90
19761;BME280;10039;42.632;23.408;2022-11-20T03:15:20;94271.69;;;17.39;59.03
19761;BME280;10039;42.632;23.408;2022-11-20T03:17:46;94277.63;;;17.43;59.31
19761;BME280;10039;42.632;23.408;2022-11-20T03:20:11;94281.94;;;17.35;59.81
19761;BME280;10039;42.632;23.408;2022-11-20T03:22:37;94278.91;;;17.13;59.73
19761;BME280;10039;42.632;23.408;2022-11-20T03:25:03;94293.72;;;17.38;59.18
19761;BME280;10039;42.632;23.408;2022-11-20T03:27:32;94300.22;;;17.46;59.10
19761;BME280;10039;42.632;23.408;2022-11-20T03:29:58;94298.56;;;17.48;59.20
19761;BME280;10039;42.632;23.408;2022-11-20T03:32:24;94289.75;;;17.33;59.61
19761;BME280;10039;42.632;23.408;2022-11-20T03:34:49;94302.38;;;17.42;60.29
19761;BME280;10039;42.632;23.408;2022-11-20T03:37:15;94280.06;;;17.27;59.99
19761;BME280;10039;42.632;23.408;2022-11-20T03:39:41;94294.47;;;17.38;59.46
19761;BME280;10039;42.632;23.408;2022-11-20T03:42:06;94291.03;;;17.38;59.76
19761;BME280;10039;42.632;23.408;2022-11-20T03:44:52;94299.31;;;17.34;60.22
19761;BME280;10039;42.632;23.408;2022-11-20T03:47:17;94301.44;;;17.30;61.08
19761;BME280;10039;42.632;23.408;2022-11-20T03:49:43;94296.44;;;17.23;60.55
19761;BME280;10039;42.632;23.408;2022-11-20T03:52:08;94298.13;;;17.21;60.07
19761;BME280;10039;42.632;23.408;2022-11-20T03:54:34;94305.56;;;17.26;60.09
19761;BME280;10039;42.632;23.408;2022-11-20T03:56:59;94307.06;;;17.27;60.00
19761;BME280;10039;42.632;23.408;2022-11-20T03:59:25;94300.72;;;17.30;60.07
19761;BME280;10039;42.632;23.408;2022-11-20T04:01:51;94301.19;;;17.28;60.34
19761;BME280;10039;42.632;23.408;2022-11-20T04:04:20;94300.59;;;17.39;59.32
19761;BME280;10039;42.632;23.408;2022-11-20T04:06:45;94299.59;;;17.36;59.39
19761;BME280;10039;42.632;23.408;2022-11-20T04:09:11;94297.91;;;17.39;59.12
19761;BME280;10039;42.632;23.408;2022-11-20T04:11:39;94306.16;;;17.50;58.71
19761;BME280;10039;42.632;23.408;2022-11-20T04:14:06;94305.88;;;17.48;58.49
19761;BME280;10039;42.632;23.408;2022-11-20T04:16:37;94300.22;;;17.46;58.58
19761;BME280;10039;42.632;23.408;2022-11-20T04:19:06;94316.19;;;17.64;56.85
19761;BME280;10039;42.632;23.408;2022-11-20T04:21:34;94312.94;;;17.60;57.96
19761;BME280;10039;42.632;23.408;2022-11-20T04:24:00;94308.25;;;17.60;57.73
19761;BME280;10039;42.632;23.408;2022-11-20T04:26:26;94326.59;;;17.56;58.99
19761;BME280;10039;42.632;23.408;2022-11-20T04:28:52;94316.84;;;17.59;58.56
19761;BME280;10039;42.632;23.408;2022-11-20T04:31:20;94340.50;;;17.49;59.10
19761;BME280;10039;42.632;23.408;2022-11-20T04:33:46;94338.38;;;17.39;59.02
19761;BME280;10039;42.632;23.408;2022-11-20T04:36:20;94315.59;;;17.40;59.40
19761;BME280;10039;42.632;23.408;2022-11-20T04:38:50;94339.75;;;17.49;59.18
19761;BME280;10039;42.632;23.408;2022-11-20T04:41:19;94340.97;;;17.48;59.87
19761;BME280;10039;42.632;23.408;2022-11-20T04:43:49;94325.38;;;17.37;61.55
19761;BME280;10039;42.632;23.408;2022-11-20T04:46:19;94322.88;;;17.34;60.52
19761;BME280;10039;42.632;23.408;2022-11-20T04:48:45;94295.44;;;17.21;59.90
19761;BME280;10039;42.632;23.408;2022-11-20T04:51:12;94321.25;;;17.42;60.87
19761;BME280;10039;42.632;23.408;2022-11-20T04:53:37;94306.53;;;17.08;61.01
19761;BME280;10039;42.632;23.408;2022-11-20T04:56:06;94311.34;;;17.33;61.41
19761;BME280;10039;42.632;23.408;2022-11-20T04:58:32;94301.56;;;17.36;61.75
19761;BME280;10039;42.632;23.408;2022-11-20T05:03:31;94315.03;;;17.21;61.42
19761;BME280;10039;42.632;23.408;2022-11-20T05:06:02;94308.25;;;17.26;61.55
19761;BME280;10039;42.632;23.408;2022-11-20T05:08:29;94297.03;;;17.13;61.90
19761;BME280;10039;42.632;23.408;2022-11-20T05:11:03;94325.97;;;17.12;63.56
19761;BME280;10039;42.632;23.408;2022-11-20T05:13:30;94336.38;;;17.05;64.77
19761;BME280;10039;42.632;23.408;2022-11-20T05:15:59;94329.63;;;16.95;66.61
19761;BME280;10039;42.632;23.408;2022-11-20T05:18:26;94323.47;;;16.80;67.89
19761;BME280;10039;42.632;23.408;2022-11-20T05:20:55;94283.34;;;16.53;68.05
19761;BME280;10039;42.632;23.408;2022-11-20T05:23:21;94318.66;;;16.55;68.50
19761;BME280;10039;42.632;23.408;2022-11-20T05:25:47;94310.19;;;16.48;69.43
19761;BME280;10039;42.632;23.408;2022-11-20T05:28:13;94285.38;;;16.29;69.37
19761;BME280;10039;42.632;23.408;2022-11-20T05:30:39;94299.69;;;16.35;69.73
19761;BME280;10039;42.632;23.408;2022-11-20T05:33:04;94302.44;;;16.26;69.16
19761;BME280;10039;42.632;23.408;2022-11-20T05:35:30;94331.09;;;16.38;69.30
19761;BME280;10039;42.632;23.408;2022-11-20T05:37:56;94290.34;;;16.07;69.59
19761;BME280;10039;42.632;23.408;2022-11-20T05:40:21;94306.06;;;16.23;69.45
19761;BME280;10039;42.632;23.408;2022-11-20T05:42:47;94318.88;;;16.28;69.70
19761;BME280;10039;42.632;23.408;2022-11-20T05:45:12;94313.56;;;16.19;69.83
19761;BME280;10039;42.632;23.408;2022-11-20T05:47:38;94294.78;;;16.10;68.89
19761;BME280;10039;42.632;23.408;2022-11-20T05:50:04;94299.09;;;16.17;69.22
19761;BME280;10039;42.632;23.408;2022-11-20T05:52:29;94287.50;;;16.25;69.09
19761;BME280;10039;42.632;23.408;2022-11-20T05:54:56;94287.44;;;16.34;68.46
19761;BME280;10039;42.632;23.408;2022-11-20T05:57:21;94284.28;;;16.36;68.81
19761;BME280;10039;42.632;23.408;2022-11-20T05:59:47;94294.94;;;16.30;70.06
19761;BME280;10039;42.632;23.408;2022-11-20T06:02:18;94293.16;;;16.27;70.26
19761;BME280;10039;42.632;23.408;2022-11-20T06:04:44;94288.97;;;16.12;70.09
19761;BME280;10039;42.632;23.408;2022-11-20T06:07:09;94277.72;;;16.13;69.62
19761;BME280;10039;42.632;23.408;2022-11-20T06:09:35;94288.97;;;16.26;69.25
19761;BME280;10039;42.632;23.408;2022-11-20T06:12:01;94298.03;;;16.38;68.88
19761;BME280;10039;42.632;23.408;2022-11-20T06:14:27;94276.56;;;16.43;68.47
19761;BME280;10039;42.632;23.408;2022-11-20T06:16:53;94268.63;;;16.25;67.58
19761;BME280;10039;42.632;23.408;2022-11-20T06:19:18;94283.53;;;16.50;67.63
19761;BME280;10039;42.632;23.408;2022-11-20T06:21:44;94293.84;;;16.51;67.40
19761;BME280;10039;42.632;23.408;2022-11-20T06:24:10;94292.44;;;16.41;67.08
19761;BME280;10039;42.632;23.408;2022-11-20T06:26:36;94290.59;;;16.47;67.41
19761;BME280;10039;42.632;23.408;2022-11-20T06:29:01;94294.41;;;16.41;67.20
19761;BME280;10039;42.632;23.408;2022-11-20T06:31:27;94315.31;;;16.60;66.97
19761;BME280;10039;42.632;23.408;2022-11-20T06:33:53;94287.25;;;16.38;66.92
19761;BME280;10039;42.632;23.408;2022-11-20T06:36:21;94315.13;;;16.64;66.88
19761;BME280;10039;42.632;23.408;2022-11-20T06:38:47;94314.94;;;16.67;66.91
19761;BME280;10039;42.632;23.408;2022-11-20T06:41:18;94310.28;;;16.68;66.68
19761;BME280;10039;42.632;23.408;2022-11-20T06:43:45;94312.34;;;16.73;66.18
19761;BME280;10039;42.632;23.408;2022-11-20T06:46:12;94306.75;;;16.76;65.90
19761;BME280;10039;42.632;23.408;2022-11-20T06:48:39;94318.38;;;16.82;66.02
19761;BME280;10039;42.632;23.408;2022-11-20T06:51:06;94304.44;;;16.84;65.87
19761;BME280;10039;42.632;23.408;2022-11-20T06:53:32;94309.34;;;16.85;65.06
19761;BME280;10039;42.632;23.408;2022-11-20T06:55:58;94310.09;;;16.86;65.22
19761;BME280;10039;42.632;23.408;2022-11-20T06:58:27;94317.78;;;16.92;64.54
19761;BME280;10039;42.632;23.408;2022-11-20T07:00:53;94312.41;;;16.92;64.20
19761;BME280;10039;42.632;23.408;2022-11-20T07:03:19;94321.81;;;16.97;63.92
19761;BME280;10039;42.632;23.408;2022-11-20T07:05:45;94320.66;;;17.03;64.13
19761;BME280;10039;42.632;23.408;2022-11-20T07:08:11;94321.44;;;17.04;63.96
19761;BME280;10039;42.632;23.408;2022-11-20T07:10:37;94338.97;;;17.14;63.88
19761;BME280;10039;42.632;23.408;2022-11-20T07:13:03;94331.34;;;17.12;63.51
19761;BME280;10039;42.632;23.408;2022-11-20T07:15:29;94326.59;;;17.22;62.69
19761;BME280;10039;42.632;23.408;2022-11-20T07:17:57;94339.41;;;17.27;63.14
19761;BME280;10039;42.632;23.408;2022-11-20T07:20:23;94328.72;;;17.18;62.85
19761;BME280;10039;42.632;23.408;2022-11-20T07:22:55;94310.63;;;17.04;62.75
19761;BME280;10039;42.632;23.408;2022-11-20T07:25:25;94309.03;;;17.12;61.75
19761;BME280;10039;42.632;23.408;2022-11-20T07:27:51;94307.22;;;17.38;60.64
19761;BME280;10039;42.632;23.408;2022-11-20T07:30:17;94324.50;;;17.46;61.14
19761;BME280;10039;42.632;23.408;2022-11-20T07:32:46;94309.25;;;17.43;60.76
19761;BME280;10039;42.632;23.408;2022-11-20T07:35:13;94325.38;;;17.37;61.05
19761;BME280;10039;42.632;23.408;2022-11-20T07:37:38;94326.38;;;17.40;61.21
19761;BME280;10039;42.632;23.408;2022-11-20T07:40:04;94327.69;;;17.30;62.03
19761;BME280;10039;42.632;23.408;2022-11-20T07:42:33;94324.81;;;17.19;62.03
19761;BME280;10039;42.632;23.408;2022-11-20T07:44:58;94322.88;;;17.34;62.36
19761;BME280;10039;42.632;23.408;2022-11-20T07:47:24;94318.41;;;17.31;62.35
19761;BME280;10039;42.632;23.408;2022-11-20T07:49:50;94297.13;;;17.18;61.84
19761;BME280;10039;42.632;23.408;2022-11-20T07:52:16;94310.59;;;17.33;61.73
19761;BME280;10039;42.632;23.408;2022-11-20T07:54:41;94320.81;;;17.43;61.45
19761;BME280;10039;42.632;23.408;2022-11-20T07:57:07;94293.28;;;17.25;61.57
19761;BME280;10039;42.632;23.408;2022-11-20T07:59:32;94296.25;;;17.27;62.04
19761;BME280;10039;42.632;23.408;2022-11-20T08:01:58;94303.41;;;17.30;62.00
19761;BME280;10039;42.632;23.408;2022-11-20T08:04:23;94337.25;;;17.45;62.16
19761;BME280;10039;42.632;23.408;2022-11-20T08:06:49;94338.47;;;17.44;61.98
19761;BME280;10039;42.632;23.408;2022-11-20T08:09:17;94317.00;;;17.35;62.28
19761;BME280;10039;42.632;23.408;2022-11-20T08:11:42;94319.44;;;17.33;62.09
19761;BME280;10039;42.632;23.408;2022-11-20T08:14:26;94337.88;;;17.55;61.65
19761;BME280;10039;42.632;23.408;2022-11-20T08:16:53;94319.09;;;17.46;61.66
19761;BME280;10039;42.632;23.408;2022-11-20T08:19:19;94318.31;;;17.60;61.07
19761;BME280;10039;42.632;23.408;2022-11-20T08:21:44;94299.28;;;17.49;60.99
19761;BME280;10039;42.632;23.408;2022-11-20T08:24:10;94305.50;;;17.55;61.29
19761;BME280;10039;42.632;23.408;2022-11-20T08:26:37;94310.63;;;17.73;61.16
19761;BME280;10039;42.632;23.408;2022-11-20T08:29:04;94274.81;;;17.52;61.18
19761;BME280;10039;42.632;23.408;2022-11-20T08:31:30;94314.69;;;17.83;60.44
19761;BME280;10039;42.632;23.408;2022-11-20T08:33:56;94320.69;;;17.72;60.65
19761;BME280;10039;42.632;23.408;2022-11-20T08:36:23;94297.06;;;17.67;60.54
19761;BME280;10039;42.632;23.408;2022-11-20T08:38:53;94325.22;;;17.81;60.37
19761;BME280;10039;42.632;23.408;2022-11-20T08:41:20;94300.78;;;17.70;60.24
19761;BME280;10039;42.632;23.408;2022-11-20T08:44:00;94299.56;;;17.71;60.46
19761;BME280;10039;42.632;23.408;2022-11-20T08:46:31;94329.19;;;18.05;60.13
19761;BME280;10039;42.632;23.408;2022-11-20T08:48:58;94329.13;;;18.00;60.27
19761;BME280;10039;42.632;23.408;2022-11-20T08:51:23;94332.63;;;18.05;60.34
19761;BME280;10039;42.632;23.408;2022-11-20T08:53:49;94367.41;;;18.18;60.71
19761;BME280;10039;42.632;23.408;2022-11-20T08:56:15;94372.88;;;18.03;59.83
19761;BME280;10039;42.632;23.408;2022-11-20T08:58:41;94388.34;;;18.03;60.26
19761;BME280;10039;42.632;23.408;2022-11-20T09:01:07;94359.69;;;17.91;61.13
19761;BME280;10039;42.632;23.408;2022-11-20T09:03:32;94371.25;;;17.92;59.83
19761;BME280;10039;42.632;23.408;2022-11-20T09:06:00;94374.03;;;17.97;60.54
19761;BME280;10039;42.632;23.408;2022-11-20T09:08:29;94366.13;;;17.94;61.42
19761;BME280;10039;42.632;23.408;2022-11-20T09:10:56;94361.06;;;17.81;61.80
19761;BME280;10039;42.632;23.408;2022-11-20T09:13:23;94373.81;;;17.81;61.30
19761;BME280;10039;42.632;23.408;2022-11-20T09:15:58;94369.97;;;17.87;62.38
19761;BME280;10039;42.632;23.408;2022-11-20T09:18:25;94366.53;;;17.87;63.15
19761;BME280;10039;42.632;23.408;2022-11-20T09:20:51;94380.06;;;17.72;63.44
19761;BME280;10039;42.632;23.408;2022-11-20T09:23:17;94372.56;;;17.62;64.10
19761;BME280;10039;42.632;23.408;2022-11-20T09:25:43;94362.94;;;17.75;64.47
19761;BME280;10039;42.632;23.408;2022-11-20T09:28:09;94369.00;;;17.90;64.69
19761;BME280;10039;42.632;23.408;2022-11-20T09:30:35;94373.28;;;17.97;63.94
19761;BME280;10039;42.632;23.408;2022-11-20T09:33:01;94366.97;;;17.85;63.29
19761;BME280;10039;42.632;23.408;2022-11-20T09:35:26;94370.31;;;17.40;64.56
19761;BME280;10039;42.632;23.408;2022-11-20T09:37:52;94356.75;;;17.35;65.16
19761;BME280;10039;42.632;23.408;2022-11-20T09:40:23;94360.72;;;17.39;65.48
19761;BME280;10039;42.632;23.408;2022-11-20T09:43:03;94368.13;;;17.59;65.09
19761;BME280;10039;42.632;23.408;2022-11-20T09:46:04;94357.66;;;17.66;65.10
19761;BME280;10039;42.632;23.408;2022-11-20T09:48:54;94367.72;;;17.66;64.90
19761;BME280;10039;42.632;23.408;2022-11-20T09:54:19;94355.59;;;17.41;63.80
19761;BME280;10039;42.632;23.408;2022-11-20T09:56:53;94345.97;;;17.55;64.44
19761;BME280;10039;42.632;23.408;2022-11-20T09:59:43;94358.19;;;17.50;64.58
19761;BME280;10039;42.632;23.408;2022-11-20T10:05:18;94322.31;;;17.30;66.45
19761;BME280;10039;42.632;23.408;2022-11-20T10:29:19;94310.94;;;16.77;71.01
19761;BME280;10039;42.632;23.408;2022-11-20T10:31:54;94304.53;;;16.75;70.23
19761;BME280;10039;42.632;23.408;2022-11-20T10:34:33;94299.72;;;16.64;69.90
19761;BME280;10039;42.632;23.408;2022-11-20T10:37:30;94323.13;;;16.73;71.28
19761;BME280;10039;42.632;23.408;2022-11-20T10:42:39;94322.91;;;16.47;74.93
19761;BME280;10039;42.632;23.408;2022-11-20T10:45:31;94320.03;;;16.36;74.93
19761;BME280;10039;42.632;23.408;2022-11-20T10:48:20;94319.47;;;16.32;75.56
19761;BME280;10039;42.632;23.408;2022-11-20T10:51:01;94311.50;;;16.14;76.39
19761;BME280;10039;42.632;23.408;2022-11-20T10:53:44;94308.91;;;16.05;76.16
19761;BME280;10039;42.632;23.408;2022-11-20T11:01:17;94297.84;;;15.89;76.34
19761;BME280;10039;42.632;23.408;2022-11-20T11:03:43;94300.00;;;15.99;75.62
19761;BME280;10039;42.632;23.408;2022-11-20T11:08:56;94346.50;;;16.38;74.83
19761;BME280;10039;42.632;23.408;2022-11-20T11:11:27;94356.56;;;16.37;75.41
19761;BME280;10039;42.632;23.408;2022-11-20T11:14:13;94372.31;;;16.44;75.97
19761;BME280;10039;42.632;23.408;2022-11-20T11:16:55;94378.09;;;16.37;75.76
19761;BME280;10039;42.632;23.408;2022-11-20T11:19:20;94372.31;;;16.44;75.61
19761;BME280;10039;42.632;23.408;2022-11-20T11:21:52;94411.34;;;16.34;77.06
19761;BME280;10039;42.632;23.408;2022-11-20T11:24:22;94423.75;;;16.32;77.72
19761;BME280;10039;42.632;23.408;2022-11-20T11:27:11;94357.84;;;16.18;77.35
19761;BME280;10039;42.632;23.408;2022-11-20T11:29:38;94368.44;;;16.45;77.60
19761;BME280;10039;42.632;23.408;2022-11-20T11:32:10;94389.59;;;16.38;78.65
19761;BME280;10039;42.632;23.408;2022-11-20T11:34:36;94384.88;;;16.47;77.74
19761;BME280;10039;42.632;23.408;2022-11-20T11:37:02;94391.13;;;16.53;77.15
19761;BME280;10039;42.632;23.408;2022-11-20T11:39:31;94416.56;;;16.52;77.16
19761;BME280;10039;42.632;23.408;2022-11-20T11:41:59;94429.75;;;16.27;79.82
19761;BME280;10039;42.632;23.408;2022-11-20T11:44:32;94421.41;;;16.01;81.45
19761;BME280;10039;42.632;23.408;2022-11-20T11:47:42;94429.97;;;15.68;82.60
19761;BME280;10039;42.632;23.408;2022-11-20T11:52:44;94370.06;;;15.35;82.57
19761;BME280;10039;42.632;23.408;2022-11-20T11:55:17;94402.34;;;15.17;78.25
19761;BME280;10039;42.632;23.408;2022-11-20T11:57:54;94396.25;;;15.16;79.03
19761;BME280;10039;42.632;23.408;2022-11-20T12:00:22;94371.75;;;15.14;79.11
19761;BME280;10039;42.632;23.408;2022-11-20T12:03:03;94369.03;;;15.23;76.94
19761;BME280;10039;42.632;23.408;2022-11-20T12:05:50;94370.75;;;15.03;75.34
19761;BME280;10039;42.632;23.408;2022-11-20T12:08:26;94374.38;;;14.91;75.56
19761;BME280;10039;42.632;23.408;2022-11-20T12:11:02;94369.75;;;14.82;76.62
19761;BME280;10039;42.632;23.408;2022-11-20T12:16:04;94367.31;;;14.25;77.83
19761;BME280;10039;42.632;23.408;2022-11-20T12:18:30;94363.41;;;14.08;76.62
19761;BME280;10039;42.632;23.408;2022-11-20T12:32:58;94406.03;;;13.79;78.77
19761;BME280;10039;42.632;23.408;2022-11-20T12:39:02;94371.81;;;13.44;79.61
19761;BME280;10039;42.632;23.408;2022-11-20T12:44:32;94329.38;;;13.60;79.83
19761;BME280;10039;42.632;23.408;2022-11-20T12:51:43;94312.44;;;13.99;81.12
19761;BME280;10039;42.632;23.408;2022-11-20T13:07:13;94277.13;;;14.19;80.40
19761;BME280;10039;42.632;23.408;2022-11-20T13:09:48;94276.66;;;14.20;80.78
19761;BME280;10039;42.632;23.408;2022-11-20T13:15:04;94256.81;;;14.77;76.08
19761;BME280;10039;42.632;23.408;2022-11-20T13:17:42;94258.72;;;14.85;75.76
19761;BME280;10039;42.632;23.408;2022-11-20T13:20:15;94249.59;;;14.83;75.81
19761;BME280;10039;42.632;23.408;2022-11-20T13:22:47;94274.44;;;15.01;75.62
19761;BME280;10039;42.632;23.408;2022-11-20T13:25:33;94291.63;;;15.04;75.42
19761;BME280;10039;42.632;23.408;2022-11-20T13:28:03;94278.19;;;15.04;75.56
19761;BME280;10039;42.632;23.408;2022-11-20T13:30:35;94270.56;;;15.02;75.92
19761;BME280;10039;42.632;23.408;2022-11-20T13:33:08;94250.06;;;14.81;75.13
19761;BME280;10039;42.632;23.408;2022-11-20T13:35:37;94311.72;;;15.17;75.06
19761;BME280;10039;42.632;23.408;2022-11-20T13:40:35;94331.94;;;15.04;73.39
19761;BME280;10039;42.632;23.408;2022-11-20T13:43:04;94314.94;;;14.89;74.01
19761;BME280;10039;42.632;23.408;2022-11-20T13:45:32;94298.00;;;14.74;74.00
19761;BME280;10039;42.632;23.408;2022-11-20T13:48:22;94312.03;;;14.78;74.45
19761;BME280;10039;42.632;23.408;2022-11-20T13:54:03;94334.00;;;15.09;74.58
19761;BME280;10039;42.632;23.408;2022-11-20T13:57:10;94306.69;;;14.69;73.68
19761;BME280;10039;42.632;23.408;2022-11-20T14:02:14;94337.44;;;15.00;74.68
19761;BME280;10039;42.632;23.408;2022-11-20T14:04:51;94339.38;;;15.09;74.41
19761;BME280;10039;42.632;23.408;2022-11-20T14:07:25;94364.28;;;15.09;74.33
19761;BME280;10039;42.632;23.408;2022-11-20T14:09:57;94338.94;;;15.01;75.04
19761;BME280;10039;42.632;23.408;2022-11-20T14:12:28;94281.22;;;14.88;74.87
19761;BME280;10039;42.632;23.408;2022-11-20T14:14:55;94304.00;;;15.01;75.01
19761;BME280;10039;42.632;23.408;2022-11-20T14:17:24;94301.38;;;14.92;74.73
19761;BME280;10039;42.632;23.408;2022-11-20T14:19:51;94305.09;;;14.86;75.88
19761;BME280;10039;42.632;23.408;2022-11-20T14:22:19;94322.50;;;15.08;75.57
19761;BME280;10039;42.632;23.408;2022-11-20T14:24:49;94299.50;;;15.07;74.77
19761;BME280;10039;42.632;23.408;2022-11-20T14:27:25;94310.50;;;15.18;74.83
19761;BME280;10039;42.632;23.408;2022-11-20T14:29:51;94334.38;;;15.25;74.80
19761;BME280;10039;42.632;23.408;2022-11-20T14:32:18;94319.66;;;15.12;76.44
19761;BME280;10039;42.632;23.408;2022-11-20T14:34:47;94313.78;;;15.22;75.48
19761;BME280;10039;42.632;23.408;2022-11-20T14:37:19;94335.91;;;15.26;75.25